createdAt,value
2017-02-08T00:00:10.162Z,0
2017-02-08T00:01:20.078Z,0
2017-02-08T00:02:30.004Z,0
2017-02-08T00:03:40.787Z,0
2017-02-08T00:04:51.118Z,0
2017-02-08T00:06:01.039Z,0
2017-02-08T00:07:10.955Z,0
2017-02-08T00:08:20.457Z,0
2017-02-08T00:09:31.193Z,0
2017-02-08T00:10:41.524Z,0
2017-02-08T00:11:51.855Z,0
2017-02-08T00:13:01.811Z,0
2017-02-08T00:14:12.144Z,0
2017-02-08T00:15:22.884Z,0
2017-02-08T00:16:32.395Z,0
2017-02-08T00:17:42.728Z,0
2017-02-08T00:18:53.061Z,0
2017-02-08T00:20:03.396Z,0
2017-02-08T00:21:14.071Z,0
2017-02-08T00:22:23.988Z,0
2017-02-08T00:23:33.906Z,0
2017-02-08T00:24:44.249Z,0
2017-02-08T00:25:53.754Z,0
2017-02-08T00:27:04.017Z,0
2017-02-08T00:28:13.102Z,0
2017-02-08T00:29:23.028Z,0
2017-02-08T00:30:33.361Z,0
2017-02-08T00:31:43.694Z,0
2017-02-08T00:32:54.476Z,0
2017-02-08T00:34:04.803Z,0
2017-02-08T00:35:15.135Z,0
2017-02-08T00:36:25.471Z,0
2017-02-08T00:37:35.807Z,0
2017-02-08T00:38:45.611Z,0
2017-02-08T00:39:55.526Z,0
2017-02-08T00:41:05.444Z,0
2017-02-08T00:42:15.355Z,0
2017-02-08T00:43:25.278Z,0
2017-02-08T00:44:35.960Z,0
2017-02-08T00:45:45.913Z,0
2017-02-08T00:46:55.416Z,0
2017-02-08T00:48:05.341Z,0
2017-02-08T00:49:15.253Z,0
2017-02-08T00:50:25.623Z,0
2017-02-08T00:51:35.549Z,0
2017-02-08T00:52:45.882Z,0
2017-02-08T00:53:56.217Z,0
2017-02-08T00:55:06.557Z,0
2017-02-08T00:56:17.247Z,0
2017-02-08T00:57:26.749Z,0
2017-02-08T00:58:37.081Z,0
2017-02-08T00:59:47.413Z,0
2017-02-08T01:00:57.741Z,0
2017-02-08T01:02:08.425Z,0
2017-02-08T01:03:18.755Z,0
2017-02-08T01:04:28.672Z,0
2017-02-08T01:05:38.590Z,0
2017-02-08T01:06:48.929Z,0
2017-02-08T01:07:59.129Z,0
2017-02-08T01:09:09.462Z,0
2017-02-08T01:10:19.378Z,0
2017-02-08T01:11:29.711Z,0
2017-02-08T01:12:40.041Z,0
2017-02-08T01:13:50.732Z,0
2017-02-08T01:15:01.073Z,0
2017-02-08T01:16:10.992Z,0
2017-02-08T01:17:20.496Z,0
2017-02-08T01:18:30.414Z,0
2017-02-08T01:19:41.140Z,0
2017-02-08T01:20:50.641Z,0
2017-02-08T01:22:00.974Z,0
2017-02-08T01:23:10.891Z,0
2017-02-08T01:24:21.240Z,0
2017-02-08T01:25:31.921Z,0
2017-02-08T01:26:42.259Z,0
2017-02-08T01:27:52.174Z,0
2017-02-08T01:29:02.504Z,0
2017-02-08T01:30:12.006Z,0
2017-02-08T01:31:22.375Z,0
2017-02-08T01:32:32.294Z,0
2017-02-08T01:33:42.216Z,0
2017-02-08T01:34:52.136Z,0
2017-02-08T01:36:02.460Z,0
2017-02-08T01:37:13.140Z,0
2017-02-08T01:38:23.057Z,0
2017-02-08T01:39:32.981Z,0
2017-02-08T01:40:43.321Z,0
2017-02-08T01:41:53.652Z,0
2017-02-08T01:43:03.923Z,0
2017-02-08T01:44:13.835Z,0
2017-02-08T01:45:23.751Z,0
2017-02-08T01:46:34.087Z,0
2017-02-08T01:47:43.997Z,0
2017-02-08T01:48:54.680Z,0
2017-02-08T01:50:04.600Z,0
2017-02-08T01:51:14.516Z,0
2017-02-08T01:52:24.440Z,0
2017-02-08T01:53:33.937Z,0
2017-02-08T01:54:44.768Z,0
2017-02-08T01:55:54.681Z,0
2017-02-08T01:57:05.017Z,0
2017-02-08T01:58:14.515Z,0
2017-02-08T01:59:24.019Z,0
2017-02-08T02:00:34.380Z,0
2017-02-08T02:01:44.712Z,0
2017-02-08T02:02:55.048Z,0
2017-02-08T02:04:04.975Z,0
2017-02-08T02:05:15.302Z,0
2017-02-08T02:06:25.984Z,0
2017-02-08T02:07:36.317Z,0
2017-02-08T02:08:46.648Z,0
2017-02-08T02:09:56.975Z,0
2017-02-08T02:11:07.305Z,0
2017-02-08T02:12:18.085Z,0
2017-02-08T02:13:28.006Z,0
2017-02-08T02:14:38.344Z,0
2017-02-08T02:15:48.671Z,0
2017-02-08T02:16:59.003Z,0
2017-02-08T02:18:09.267Z,0
2017-02-08T02:19:17.932Z,0
2017-02-08T02:20:28.266Z,0
2017-02-08T02:21:38.599Z,0
2017-02-08T02:22:48.514Z,0
2017-02-08T02:23:58.782Z,0
2017-02-08T02:25:09.106Z,0
2017-02-08T02:26:19.026Z,0
2017-02-08T02:27:29.363Z,0
2017-02-08T02:28:39.280Z,0
2017-02-08T02:29:49.914Z,0
2017-02-08T02:31:00.250Z,0
2017-02-08T02:32:09.750Z,0
2017-02-08T02:33:19.684Z,0
2017-02-08T02:34:29.603Z,0
2017-02-08T02:35:40.286Z,0
2017-02-08T02:36:50.197Z,0
2017-02-08T02:38:00.528Z,0
2017-02-08T02:39:10.445Z,0
2017-02-08T02:40:20.771Z,0
2017-02-08T02:41:30.671Z,0
2017-02-08T02:42:41.040Z,0
2017-02-08T02:43:51.377Z,0
2017-02-08T02:45:00.878Z,0
2017-02-08T02:46:10.792Z,0
2017-02-08T02:47:21.052Z,0
2017-02-08T02:48:31.393Z,0
2017-02-08T02:49:41.723Z,0
2017-02-08T02:50:52.049Z,0
2017-02-08T02:52:01.962Z,0
2017-02-08T02:53:11.867Z,0
2017-02-08T02:54:21.784Z,0
2017-02-08T02:55:32.124Z,0
2017-02-08T02:56:42.033Z,0
2017-02-08T02:57:51.949Z,0
2017-02-08T02:59:02.625Z,0
2017-02-08T03:00:12.541Z,0
2017-02-08T03:01:22.861Z,0
2017-02-08T03:02:32.764Z,0
2017-02-08T03:03:42.670Z,0
2017-02-08T03:04:52.880Z,0
2017-02-08T03:06:02.798Z,0
2017-02-08T03:07:12.703Z,0
2017-02-08T03:08:22.616Z,0
2017-02-08T03:09:32.946Z,0
2017-02-08T03:10:43.617Z,0
2017-02-08T03:11:53.526Z,0
2017-02-08T03:13:03.436Z,0
2017-02-08T03:14:13.338Z,0
2017-02-08T03:15:23.658Z,0
2017-02-08T03:16:33.912Z,0
2017-02-08T03:17:43.821Z,0
2017-02-08T03:18:54.139Z,0
2017-02-08T03:20:04.461Z,0
2017-02-08T03:21:14.365Z,0
2017-02-08T03:22:24.993Z,0
2017-02-08T03:23:34.901Z,0
2017-02-08T03:24:45.217Z,0
2017-02-08T03:25:55.541Z,0
2017-02-08T03:27:05.454Z,0
2017-02-08T03:28:15.297Z,0
2017-02-08T03:29:25.203Z,0
2017-02-08T03:30:34.283Z,0
2017-02-08T03:31:44.609Z,0
2017-02-08T03:32:54.937Z,0
2017-02-08T03:34:05.617Z,0
2017-02-08T03:35:15.521Z,0
2017-02-08T03:36:25.435Z,0
2017-02-08T03:37:35.762Z,0
2017-02-08T03:38:45.676Z,0
2017-02-08T03:39:56.342Z,0
2017-02-08T03:41:06.675Z,0
2017-02-08T03:42:16.989Z,0
2017-02-08T03:43:26.892Z,0
2017-02-08T03:44:37.206Z,0
2017-02-08T03:45:47.514Z,0
2017-02-08T03:46:57.837Z,0
2017-02-08T03:48:08.166Z,0
2017-02-08T03:49:17.654Z,0
2017-02-08T03:50:27.558Z,0
2017-02-08T03:51:37.817Z,0
2017-02-08T03:52:48.145Z,0
2017-02-08T03:53:57.641Z,0
2017-02-08T03:55:07.562Z,0
2017-02-08T03:56:17.883Z,0
2017-02-08T03:57:28.145Z,0
2017-02-08T03:58:38.053Z,0
2017-02-08T03:59:48.371Z,0
2017-02-08T04:00:58.279Z,0
2017-02-08T04:02:08.604Z,0
2017-02-08T04:03:18.894Z,0
2017-02-08T04:04:28.799Z,0
2017-02-08T04:05:38.707Z,0
2017-02-08T04:06:49.027Z,0
2017-02-08T04:07:58.934Z,0
2017-02-08T04:09:09.654Z,0
2017-02-08T04:10:19.143Z,0
2017-02-08T04:11:28.645Z,0
2017-02-08T04:12:38.971Z,0
2017-02-08T04:13:49.288Z,0
2017-02-08T04:14:59.083Z,0
2017-02-08T04:16:08.996Z,0
2017-02-08T04:17:18.899Z,0
2017-02-08T04:18:29.221Z,0
2017-02-08T04:19:39.545Z,0
2017-02-08T04:20:50.225Z,0
2017-02-08T04:22:00.553Z,0
2017-02-08T04:23:10.880Z,0
2017-02-08T04:24:21.205Z,0
2017-02-08T04:25:31.528Z,0
2017-02-08T04:26:42.194Z,0
2017-02-08T04:27:52.118Z,0
2017-02-08T04:29:02.034Z,0
2017-02-08T04:30:11.943Z,0
2017-02-08T04:31:22.271Z,0
2017-02-08T04:32:32.937Z,0
2017-02-08T04:33:42.842Z,0
2017-02-08T04:34:53.169Z,0
2017-02-08T04:36:03.508Z,0
2017-02-08T04:37:13.416Z,0
2017-02-08T04:38:23.769Z,0
2017-02-08T04:39:34.086Z,0
2017-02-08T04:40:43.585Z,0
2017-02-08T04:41:53.495Z,0
2017-02-08T04:43:03.816Z,0
2017-02-08T04:44:14.518Z,0
2017-02-08T04:45:24.423Z,0
2017-02-08T04:46:34.753Z,0
2017-02-08T04:47:45.081Z,0
2017-02-08T04:48:55.410Z,0
2017-02-08T04:50:05.623Z,0
2017-02-08T04:51:15.951Z,0
2017-02-08T04:52:25.861Z,0
2017-02-08T04:53:35.779Z,0
2017-02-08T04:54:46.102Z,0
2017-02-08T04:55:56.882Z,0
2017-02-08T04:57:06.788Z,0
2017-02-08T04:58:17.116Z,0
2017-02-08T04:59:27.435Z,0
2017-02-08T05:00:37.751Z,0
2017-02-08T05:01:48.116Z,0
2017-02-08T05:02:58.442Z,0
2017-02-08T05:04:07.935Z,0
2017-02-08T05:05:17.850Z,0
2017-02-08T05:06:27.760Z,0
2017-02-08T05:07:38.423Z,0
2017-02-08T05:08:48.745Z,0
2017-02-08T05:09:58.649Z,0
2017-02-08T05:11:08.973Z,0
2017-02-08T05:12:19.314Z,0
2017-02-08T05:13:29.164Z,0
2017-02-08T05:14:39.492Z,0
2017-02-08T05:15:49.814Z,0
2017-02-08T05:17:00.134Z,0
2017-02-08T05:18:10.051Z,0
2017-02-08T05:19:20.746Z,0
2017-02-08T05:20:30.251Z,0
2017-02-08T05:21:39.747Z,0
2017-02-08T05:22:49.670Z,0
2017-02-08T05:24:00.004Z,0
2017-02-08T05:25:10.677Z,0
2017-02-08T05:26:21.000Z,0
2017-02-08T05:27:31.337Z,0
2017-02-08T05:28:41.670Z,0
2017-02-08T05:29:51.993Z,0
2017-02-08T05:31:02.255Z,0
2017-02-08T05:32:12.579Z,0
2017-02-08T05:33:22.081Z,0
2017-02-08T05:34:31.579Z,0
2017-02-08T05:35:41.073Z,0
2017-02-08T05:36:51.732Z,0
2017-02-08T05:38:02.050Z,0
2017-02-08T05:39:12.376Z,0
2017-02-08T05:40:22.711Z,0
2017-02-08T05:41:32.627Z,0
2017-02-08T05:42:42.789Z,0
2017-02-08T05:43:52.691Z,0
2017-02-08T05:45:02.601Z,0
2017-02-08T05:46:12.927Z,0
2017-02-08T05:47:23.244Z,0
2017-02-08T05:48:33.921Z,0
2017-02-08T05:49:44.244Z,0
2017-02-08T05:50:54.562Z,0
2017-02-08T05:52:04.473Z,0
2017-02-08T05:53:14.834Z,0
2017-02-08T05:54:25.093Z,0
2017-02-08T05:55:35.000Z,0
2017-02-08T05:56:44.905Z,0
2017-02-08T05:57:55.230Z,0
2017-02-08T05:59:05.552Z,0
2017-02-08T06:00:15.808Z,0
2017-02-08T06:01:25.717Z,0
2017-02-08T06:02:35.631Z,0
2017-02-08T06:03:45.123Z,0
2017-02-08T06:04:55.037Z,0
2017-02-08T06:06:05.656Z,0
2017-02-08T06:07:15.560Z,0
2017-02-08T06:08:25.469Z,0
2017-02-08T06:09:35.791Z,0
2017-02-08T06:10:46.114Z,0
2017-02-08T06:11:56.378Z,0
2017-02-08T06:13:06.693Z,0
2017-02-08T06:14:17.013Z,0
2017-02-08T06:15:27.330Z,0
2017-02-08T06:16:37.656Z,0
2017-02-08T06:17:47.896Z,0
2017-02-08T06:18:58.211Z,0
2017-02-08T06:20:07.708Z,0
2017-02-08T06:21:17.624Z,0
2017-02-08T06:22:27.947Z,0
2017-02-08T06:23:38.744Z,0
2017-02-08T06:24:49.072Z,0
2017-02-08T06:25:59.393Z,0
2017-02-08T06:27:09.717Z,4
2017-02-08T06:28:20.037Z,0
2017-02-08T06:29:30.707Z,0
2017-02-08T06:30:40.614Z,4
2017-02-08T06:31:50.931Z,0
2017-02-08T06:33:00.833Z,4
2017-02-08T06:34:11.151Z,4
2017-02-08T06:35:21.822Z,8
2017-02-08T06:36:32.145Z,8
2017-02-08T06:37:42.466Z,8
2017-02-08T06:38:52.376Z,8
2017-02-08T06:40:02.707Z,12
2017-02-08T06:41:12.555Z,16
2017-02-08T06:42:22.050Z,16
2017-02-08T06:43:32.379Z,20
2017-02-08T06:44:42.694Z,24
2017-02-08T06:45:52.604Z,28
2017-02-08T06:47:03.279Z,32
2017-02-08T06:48:13.330Z,36
2017-02-08T06:49:23.248Z,40
2017-02-08T06:50:33.575Z,48
2017-02-08T06:51:43.491Z,52
2017-02-08T06:52:54.167Z,60
2017-02-08T06:54:03.659Z,68
2017-02-08T06:55:13.568Z,76
2017-02-08T06:56:23.895Z,88
2017-02-08T06:57:33.804Z,100
2017-02-08T06:58:44.531Z,148
2017-02-08T06:59:54.071Z,120
2017-02-08T07:01:03.583Z,140
2017-02-08T07:02:13.496Z,156
2017-02-08T07:03:23.824Z,168
2017-02-08T07:04:34.112Z,184
2017-02-08T07:05:44.478Z,200
2017-02-08T07:06:54.413Z,220
2017-02-08T07:08:04.329Z,232
2017-02-08T07:09:14.720Z,244
2017-02-08T07:10:24.966Z,264
2017-02-08T07:11:34.877Z,284
2017-02-08T07:12:45.201Z,300
2017-02-08T07:13:55.804Z,320
2017-02-08T07:15:06.170Z,336
2017-02-08T07:16:16.424Z,356
2017-02-08T07:17:25.939Z,380
2017-02-08T07:18:35.850Z,396
2017-02-08T07:19:45.769Z,420
2017-02-08T07:20:55.271Z,444
2017-02-08T07:22:06.001Z,476
2017-02-08T07:23:15.496Z,508
2017-02-08T07:24:25.438Z,544
2017-02-08T07:25:35.812Z,572
2017-02-08T07:26:45.728Z,592
2017-02-08T07:27:56.380Z,620
2017-02-08T07:29:06.751Z,652
2017-02-08T07:30:16.735Z,680
2017-02-08T07:31:27.433Z,692
2017-02-08T07:32:37.473Z,712
2017-02-08T07:33:48.266Z,756
2017-02-08T07:34:58.318Z,800
2017-02-08T07:36:08.771Z,836
2017-02-08T07:37:18.463Z,864
2017-02-08T07:38:28.428Z,892
2017-02-08T07:39:39.153Z,924
2017-02-08T07:40:48.654Z,948
2017-02-08T07:41:58.943Z,960
2017-02-08T07:43:10.053Z,980
2017-02-08T07:44:19.550Z,1016
2017-02-08T07:45:30.508Z,1040
2017-02-08T07:46:40.633Z,1088
2017-02-08T07:47:52.615Z,1132
2017-02-08T07:49:02.827Z,1172
2017-02-08T07:50:12.789Z,1212
2017-02-08T07:51:24.073Z,1272
2017-02-08T07:52:34.112Z,1328
2017-02-08T07:53:44.125Z,1360
2017-02-08T07:54:54.471Z,1412
2017-02-08T07:56:04.033Z,1452
2017-02-08T07:57:14.012Z,1468
2017-02-08T07:58:24.674Z,1488
2017-02-08T07:59:34.674Z,1524
2017-02-08T08:00:43.805Z,1568
2017-02-08T08:01:54.168Z,1612
2017-02-08T08:03:04.849Z,1664
2017-02-08T08:04:15.171Z,1732
2017-02-08T08:05:25.107Z,1820
2017-02-08T08:06:35.057Z,1908
2017-02-08T08:07:44.962Z,2008
2017-02-08T08:08:55.218Z,2084
2017-02-08T08:10:05.543Z,2088
2017-02-08T08:11:15.863Z,2112
2017-02-08T08:12:26.186Z,2160
2017-02-08T08:13:35.681Z,2184
2017-02-08T08:14:45.534Z,2140
2017-02-08T08:15:55.897Z,2172
2017-02-08T08:17:05.808Z,2196
2017-02-08T08:18:16.134Z,2240
2017-02-08T08:19:25.630Z,2304
2017-02-08T08:20:35.990Z,2436
2017-02-08T08:21:46.315Z,2464
2017-02-08T08:22:56.637Z,2456
2017-02-08T08:24:06.957Z,2448
2017-02-08T08:25:17.281Z,2408
2017-02-08T08:26:27.541Z,2448
2017-02-08T08:27:37.449Z,2536
2017-02-08T08:28:47.365Z,2604
2017-02-08T08:29:57.704Z,2656
2017-02-08T08:31:07.211Z,2684
2017-02-08T08:32:17.371Z,2704
2017-02-08T08:33:26.868Z,2788
2017-02-08T08:34:36.780Z,2920
2017-02-08T08:35:46.281Z,3004
2017-02-08T08:36:56.612Z,3068
2017-02-08T08:38:07.319Z,3116
2017-02-08T08:39:17.656Z,3100
2017-02-08T08:40:27.981Z,3136
2017-02-08T08:41:38.302Z,3184
2017-02-08T08:42:48.220Z,3220
2017-02-08T08:43:58.504Z,3252
2017-02-08T08:45:08.012Z,3252
2017-02-08T08:46:18.356Z,3336
2017-02-08T08:47:28.279Z,3424
2017-02-08T08:48:37.775Z,3448
2017-02-08T08:49:48.408Z,3452
2017-02-08T08:50:58.763Z,3428
2017-02-08T08:52:08.688Z,3416
2017-02-08T08:53:19.017Z,3444
2017-02-08T08:54:28.938Z,3488
2017-02-08T08:55:39.258Z,3564
2017-02-08T08:56:48.758Z,3608
2017-02-08T08:57:59.087Z,3660
2017-02-08T08:59:08.998Z,3760
2017-02-08T09:00:18.909Z,3912
2017-02-08T09:01:29.167Z,3996
2017-02-08T09:02:39.083Z,4088
2017-02-08T09:03:49.412Z,4176
2017-02-08T09:04:59.731Z,4264
2017-02-08T09:06:09.637Z,4280
2017-02-08T09:07:19.897Z,4228
2017-02-08T09:08:30.227Z,4216
2017-02-08T09:09:40.561Z,4240
2017-02-08T09:10:50.476Z,4324
2017-02-08T09:12:00.801Z,4400
2017-02-08T09:13:11.060Z,4540
2017-02-08T09:14:20.978Z,4592
2017-02-08T09:15:30.909Z,4696
2017-02-08T09:16:41.239Z,4840
2017-02-08T09:17:51.565Z,4980
2017-02-08T09:19:01.821Z,5004
2017-02-08T09:20:11.726Z,4932
2017-02-08T09:21:22.052Z,4972
2017-02-08T09:22:31.554Z,5120
2017-02-08T09:23:41.051Z,5196
2017-02-08T09:24:51.822Z,5256
2017-02-08T09:26:02.183Z,5252
2017-02-08T09:27:12.507Z,5220
2017-02-08T09:28:22.007Z,5316
2017-02-08T09:29:32.328Z,5328
2017-02-08T09:30:43.004Z,5400
2017-02-08T09:31:52.913Z,5496
2017-02-08T09:33:03.233Z,5568
2017-02-08T09:34:13.550Z,5652
2017-02-08T09:35:23.508Z,5736
2017-02-08T09:36:33.764Z,5780
2017-02-08T09:37:44.095Z,5860
2017-02-08T09:38:54.438Z,5920
2017-02-08T09:40:04.762Z,5996
2017-02-08T09:41:15.101Z,6080
2017-02-08T09:42:25.765Z,6188
2017-02-08T09:43:36.093Z,6364
2017-02-08T09:44:46.428Z,6404
2017-02-08T09:45:56.753Z,6432
2017-02-08T09:47:07.085Z,6428
2017-02-08T09:48:17.352Z,6360
2017-02-08T09:49:27.294Z,6256
2017-02-08T09:50:37.620Z,6128
2017-02-08T09:51:47.531Z,6020
2017-02-08T09:52:57.861Z,5912
2017-02-08T09:54:08.079Z,5888
2017-02-08T09:55:17.994Z,5996
2017-02-08T09:56:27.910Z,6148
2017-02-08T09:57:38.236Z,6208
2017-02-08T09:58:48.567Z,6224
2017-02-08T09:59:59.352Z,6276
2017-02-08T10:01:09.510Z,6240
2017-02-08T10:02:19.830Z,6212
2017-02-08T10:03:29.750Z,6236
2017-02-08T10:04:39.242Z,6260
2017-02-08T10:05:49.550Z,6332
2017-02-08T10:06:59.054Z,6376
2017-02-08T10:08:09.389Z,6384
2017-02-08T10:09:19.721Z,6416
2017-02-08T10:10:30.069Z,6368
2017-02-08T10:11:40.282Z,6340
2017-02-08T10:12:51.032Z,6420
2017-02-08T10:14:01.373Z,6484
2017-02-08T10:15:11.698Z,6528
2017-02-08T10:16:22.038Z,6552
2017-02-08T10:17:32.743Z,6500
2017-02-08T10:18:42.244Z,6568
2017-02-08T10:19:52.581Z,6596
2017-02-08T10:21:02.501Z,6496
2017-02-08T10:22:12.419Z,6368
2017-02-08T10:23:22.672Z,6160
2017-02-08T10:24:33.004Z,6032
2017-02-08T10:25:43.337Z,6080
2017-02-08T10:26:53.665Z,6276
2017-02-08T10:28:03.995Z,6476
2017-02-08T10:29:14.260Z,6592
2017-02-08T10:30:24.175Z,6532
2017-02-08T10:31:34.495Z,5996
2017-02-08T10:32:44.814Z,5684
2017-02-08T10:33:55.130Z,5812
2017-02-08T10:35:05.435Z,6116
2017-02-08T10:36:15.353Z,6312
2017-02-08T10:37:25.260Z,6284
2017-02-08T10:38:35.583Z,6104
2017-02-08T10:39:45.902Z,5864
2017-02-08T10:40:56.582Z,6008
2017-02-08T10:42:06.902Z,6160
2017-02-08T10:43:16.813Z,6128
2017-02-08T10:44:26.306Z,6256
2017-02-08T10:45:36.216Z,6324
2017-02-08T10:46:46.887Z,6364
2017-02-08T10:47:55.958Z,6360
2017-02-08T10:49:06.289Z,6340
2017-02-08T10:50:16.615Z,6500
2017-02-08T10:51:26.112Z,6700
2017-02-08T10:52:36.922Z,6792
2017-02-08T10:53:47.246Z,6920
2017-02-08T10:54:57.152Z,7120
2017-02-08T10:56:06.657Z,7068
2017-02-08T10:57:16.981Z,6896
2017-02-08T10:58:26.854Z,6892
2017-02-08T10:59:37.193Z,6924
2017-02-08T11:00:47.124Z,6964
2017-02-08T11:01:57.455Z,7040
2017-02-08T11:03:07.784Z,7096
2017-02-08T11:04:18.556Z,7184
2017-02-08T11:05:28.469Z,7124
2017-02-08T11:06:38.793Z,7024
2017-02-08T11:07:49.117Z,7044
2017-02-08T11:08:59.036Z,7076
2017-02-08T11:10:09.823Z,7044
2017-02-08T11:11:20.142Z,6968
2017-02-08T11:12:30.489Z,6768
2017-02-08T11:13:40.834Z,6596
2017-02-08T11:14:50.335Z,6644
2017-02-08T11:16:01.113Z,6828
2017-02-08T11:17:11.030Z,7052
2017-02-08T11:18:20.536Z,7248
2017-02-08T11:19:30.873Z,7056
2017-02-08T11:20:41.192Z,7240
2017-02-08T11:21:51.454Z,7116
2017-02-08T11:23:01.776Z,6960
2017-02-08T11:24:12.096Z,6840
2017-02-08T11:25:21.999Z,6752
2017-02-08T11:26:31.942Z,6688
2017-02-08T11:27:42.179Z,6676
2017-02-08T11:28:52.504Z,6768
2017-02-08T11:30:02.830Z,6936
2017-02-08T11:31:12.753Z,6896
2017-02-08T11:32:22.666Z,6808
2017-02-08T11:33:33.341Z,6776
2017-02-08T11:34:43.661Z,6800
2017-02-08T11:35:53.581Z,6824
2017-02-08T11:37:03.899Z,6852
2017-02-08T11:38:13.810Z,6948
2017-02-08T11:39:23.244Z,7044
2017-02-08T11:40:32.737Z,7148
2017-02-08T11:41:43.066Z,7280
2017-02-08T11:42:52.978Z,7404
2017-02-08T11:44:03.345Z,7436
2017-02-08T11:45:14.028Z,7320
2017-02-08T11:46:23.964Z,7180
2017-02-08T11:47:33.905Z,7092
2017-02-08T11:48:44.257Z,7132
2017-02-08T11:49:54.594Z,7288
2017-02-08T11:51:04.919Z,7408
2017-02-08T11:52:15.251Z,7524
2017-02-08T11:53:25.615Z,7628
2017-02-08T11:54:35.524Z,7668
2017-02-08T11:55:45.456Z,7584
2017-02-08T11:56:55.825Z,7460
2017-02-08T11:58:05.746Z,7408
2017-02-08T11:59:16.070Z,7440
2017-02-08T12:00:26.402Z,7520
2017-02-08T12:01:36.736Z,7560
2017-02-08T12:02:46.993Z,7468
2017-02-08T12:03:57.309Z,7488
2017-02-08T12:05:07.230Z,7544
2017-02-08T12:06:17.559Z,7680
2017-02-08T12:07:27.889Z,7780
2017-02-08T12:08:38.666Z,7752
2017-02-08T12:09:49.009Z,7736
2017-02-08T12:10:59.336Z,7840
2017-02-08T12:12:08.866Z,7800
2017-02-08T12:13:19.202Z,7716
2017-02-08T12:14:29.364Z,7848
2017-02-08T12:15:39.688Z,7944
2017-02-08T12:16:50.044Z,7928
2017-02-08T12:17:59.954Z,7944
2017-02-08T12:19:10.279Z,7928
2017-02-08T12:20:20.491Z,8072
2017-02-08T12:21:30.410Z,8120
2017-02-08T12:22:40.323Z,8096
2017-02-08T12:23:50.677Z,7928
2017-02-08T12:25:01.041Z,7864
2017-02-08T12:26:11.370Z,7944
2017-02-08T12:27:21.274Z,7904
2017-02-08T12:28:30.817Z,7956
2017-02-08T12:29:40.309Z,8024
2017-02-08T12:30:50.218Z,7900
2017-02-08T12:32:00.116Z,7852
2017-02-08T12:33:10.024Z,7836
2017-02-08T12:34:20.347Z,7804
2017-02-08T12:35:29.841Z,7796
2017-02-08T12:36:39.753Z,7752
2017-02-08T12:37:49.699Z,7824
2017-02-08T12:38:59.608Z,7756
2017-02-08T12:40:09.939Z,7648
2017-02-08T12:41:20.306Z,7592
2017-02-08T12:42:30.627Z,7584
2017-02-08T12:43:40.172Z,7432
2017-02-08T12:44:50.090Z,7120
2017-02-08T12:46:00.006Z,7084
2017-02-08T12:47:09.918Z,7236
2017-02-08T12:48:20.246Z,7244
2017-02-08T12:49:30.936Z,7176
2017-02-08T12:50:40.894Z,7192
2017-02-08T12:51:50.836Z,7164
2017-02-08T12:53:01.155Z,7076
2017-02-08T12:54:11.074Z,7048
2017-02-08T12:55:21.737Z,7172
2017-02-08T12:56:31.647Z,7324
2017-02-08T12:57:41.564Z,7400
2017-02-08T12:58:51.474Z,7360
2017-02-08T13:00:01.796Z,7224
2017-02-08T13:01:12.572Z,7108
2017-02-08T13:02:22.895Z,7000
2017-02-08T13:03:33.220Z,6844
2017-02-08T13:04:43.560Z,6720
2017-02-08T13:05:53.488Z,6520
2017-02-08T13:07:03.707Z,6404
2017-02-08T13:08:13.623Z,6376
2017-02-08T13:09:23.124Z,6344
2017-02-08T13:10:32.629Z,6224
2017-02-08T13:11:42.959Z,6192
2017-02-08T13:12:53.584Z,6260
2017-02-08T13:14:03.489Z,6376
2017-02-08T13:15:13.393Z,6372
2017-02-08T13:16:22.884Z,6392
2017-02-08T13:17:32.796Z,6360
2017-02-08T13:18:43.578Z,6260
2017-02-08T13:19:53.902Z,6096
2017-02-08T13:21:03.403Z,5988
2017-02-08T13:22:13.733Z,5944
2017-02-08T13:23:24.052Z,5904
2017-02-08T13:24:34.311Z,5896
2017-02-08T13:25:44.627Z,6020
2017-02-08T13:26:54.538Z,6148
2017-02-08T13:28:04.454Z,6020
2017-02-08T13:29:14.785Z,5764
2017-02-08T13:30:24.627Z,5588
2017-02-08T13:31:34.128Z,5516
2017-02-08T13:32:44.494Z,5548
2017-02-08T13:33:54.810Z,5596
2017-02-08T13:35:05.138Z,5608
2017-02-08T13:36:15.347Z,5512
2017-02-08T13:37:25.261Z,5420
2017-02-08T13:38:35.584Z,5356
2017-02-08T13:39:45.905Z,5268
2017-02-08T13:40:55.815Z,5156
2017-02-08T13:42:06.493Z,5040
2017-02-08T13:43:16.852Z,5012
2017-02-08T13:44:27.179Z,4956
2017-02-08T13:45:36.675Z,4960
2017-02-08T13:46:46.177Z,4892
2017-02-08T13:47:56.858Z,4800
2017-02-08T13:49:07.187Z,4660
2017-02-08T13:50:17.510Z,4628
2017-02-08T13:51:27.422Z,4652
2017-02-08T13:52:37.750Z,4664
2017-02-08T13:53:48.822Z,4632
2017-02-08T13:54:58.734Z,4596
2017-02-08T13:56:09.067Z,4524
2017-02-08T13:57:18.979Z,4496
2017-02-08T13:58:29.303Z,4552
2017-02-08T13:59:39.981Z,4580
2017-02-08T14:00:49.477Z,4508
2017-02-08T14:01:59.800Z,4452
2017-02-08T14:03:09.705Z,4492
2017-02-08T14:04:19.612Z,4552
2017-02-08T14:05:29.877Z,4628
2017-02-08T14:06:39.791Z,4612
2017-02-08T14:07:49.702Z,4528
2017-02-08T14:09:00.042Z,4464
2017-02-08T14:10:10.367Z,4476
2017-02-08T14:11:20.773Z,4460
2017-02-08T14:12:30.681Z,4352
2017-02-08T14:13:41.008Z,4216
2017-02-08T14:14:50.508Z,3988
2017-02-08T14:15:59.997Z,3932
2017-02-08T14:17:09.858Z,3948
2017-02-08T14:18:19.766Z,3892
2017-02-08T14:19:30.093Z,3748
2017-02-08T14:20:40.429Z,3744
2017-02-08T14:21:50.749Z,3756
2017-02-08T14:23:01.375Z,3624
2017-02-08T14:24:11.290Z,3492
2017-02-08T14:25:21.612Z,3524
2017-02-08T14:26:31.976Z,3616
2017-02-08T14:27:42.318Z,3640
2017-02-08T14:28:53.005Z,3552
2017-02-08T14:30:03.327Z,3476
2017-02-08T14:31:13.657Z,3380
2017-02-08T14:36:23.113Z,3112
2017-02-08T14:41:49.177Z,2832
2017-02-08T14:42:59.504Z,2784
2017-02-08T14:44:09.416Z,2768
2017-02-08T14:45:22.123Z,2756
2017-02-08T14:46:32.456Z,2696
2017-02-08T14:47:42.780Z,2664
2017-02-08T14:48:53.107Z,2668
2017-02-08T14:50:03.435Z,2600
2017-02-08T14:51:13.694Z,2548
2017-02-08T14:52:23.599Z,2484
2017-02-08T14:53:33.505Z,2440
2017-02-08T14:54:43.829Z,2412
2017-02-08T14:55:54.152Z,2364
2017-02-08T14:57:04.006Z,2288
2017-02-08T14:58:13.919Z,2228
2017-02-08T14:59:24.242Z,2164
2017-02-08T15:00:34.569Z,2080
2017-02-08T15:01:44.482Z,2000
2017-02-08T15:02:54.837Z,1908
2017-02-08T15:04:05.166Z,1816
2017-02-08T15:05:15.073Z,1816
2017-02-08T15:06:24.983Z,1824
2017-02-08T15:07:35.320Z,1800
2017-02-08T15:08:45.484Z,1764
2017-02-08T15:09:54.982Z,1696
2017-02-08T15:11:05.305Z,1600
2017-02-08T15:12:15.220Z,1532
2017-02-08T15:13:25.547Z,1444
2017-02-08T15:14:35.717Z,1428
2017-02-08T15:15:45.633Z,1400
2017-02-08T15:16:55.962Z,1428
2017-02-08T15:18:05.879Z,1432
2017-02-08T15:19:15.793Z,1388
2017-02-08T15:20:26.419Z,1332
2017-02-08T15:21:36.331Z,1216
2017-02-08T15:22:46.249Z,1124
2017-02-08T15:23:56.575Z,1088
2017-02-08T15:25:06.894Z,1076
2017-02-08T15:26:16.842Z,1048
2017-02-08T15:27:27.175Z,1004
2017-02-08T15:28:37.494Z,980
2017-02-08T15:29:47.404Z,928
2017-02-08T15:30:57.318Z,904
2017-02-08T15:32:08.431Z,904
2017-02-08T15:33:18.340Z,932
2017-02-08T15:34:28.664Z,932
2017-02-08T15:35:39.004Z,868
2017-02-08T15:36:49.498Z,848
2017-02-08T15:38:00.008Z,824
2017-02-08T15:39:09.723Z,760
2017-02-08T15:40:19.801Z,656
2017-02-08T15:41:29.877Z,604
2017-02-08T15:42:39.957Z,592
2017-02-08T15:43:50.406Z,596
2017-02-08T15:45:00.126Z,584
2017-02-08T15:46:10.623Z,536
2017-02-08T15:47:21.067Z,492
2017-02-08T15:48:31.178Z,456
2017-02-08T15:49:41.701Z,432
2017-02-08T15:50:51.773Z,404
2017-02-08T15:52:01.884Z,372
2017-02-08T15:53:11.644Z,352
2017-02-08T15:54:21.357Z,328
2017-02-08T15:55:33.029Z,320
2017-02-08T15:56:42.759Z,316
2017-02-08T15:57:52.894Z,320
2017-02-08T15:59:02.613Z,316
2017-02-08T16:00:12.524Z,292
2017-02-08T16:01:23.596Z,276
2017-02-08T16:02:33.507Z,268
2017-02-08T16:03:43.419Z,260
2017-02-08T16:04:53.739Z,240
2017-02-08T16:06:03.643Z,228
2017-02-08T16:07:14.722Z,204
2017-02-08T16:08:25.037Z,180
2017-02-08T16:09:35.364Z,168
2017-02-08T16:10:45.682Z,164
2017-02-08T16:11:55.589Z,148
2017-02-08T16:13:06.306Z,136
2017-02-08T16:14:15.805Z,132
2017-02-08T16:15:26.129Z,128
2017-02-08T16:16:36.036Z,116
2017-02-08T16:17:46.353Z,108
2017-02-08T16:18:56.983Z,108
2017-02-08T16:20:07.308Z,100
2017-02-08T16:21:17.631Z,96
2017-02-08T16:22:27.962Z,88
2017-02-08T16:23:38.290Z,80
2017-02-08T16:24:48.548Z,76
2017-02-08T16:25:58.870Z,72